sensor_id;sensor_type;location;lat;lon;timestamp;P1;durP1;ratioP1;P2;durP2;ratioP2
57985;SDS011;43788;42.670;23.330;2022-12-11T00:01:44;0.60;;;0.60;;
57985;SDS011;43788;42.670;23.330;2022-12-11T00:04:10;1.27;;;0.82;;
57985;SDS011;43788;42.670;23.330;2022-12-11T00:06:35;0.70;;;0.70;;
57985;SDS011;43788;42.670;23.330;2022-12-11T00:09:00;0.68;;;0.68;;
57985;SDS011;43788;42.670;23.330;2022-12-11T00:11:26;0.80;;;0.80;;
57985;SDS011;43788;42.670;23.330;2022-12-11T00:13:51;0.63;;;0.63;;
57985;SDS011;43788;42.670;23.330;2022-12-11T00:16:17;0.75;;;0.60;;
57985;SDS011;43788;42.670;23.330;2022-12-11T00:18:42;0.60;;;0.60;;
57985;SDS011;43788;42.670;23.330;2022-12-11T00:21:10;0.63;;;0.63;;
57985;SDS011;43788;42.670;23.330;2022-12-11T00:23:38;0.77;;;0.77;;
57985;SDS011;43788;42.670;23.330;2022-12-11T00:26:08;0.55;;;0.55;;
57985;SDS011;43788;42.670;23.330;2022-12-11T00:28:35;0.65;;;0.60;;
57985;SDS011;43788;42.670;23.330;2022-12-11T00:31:06;0.65;;;0.65;;
57985;SDS011;43788;42.670;23.330;2022-12-11T00:33:32;0.80;;;0.80;;
57985;SDS011;43788;42.670;23.330;2022-12-11T00:35:58;1.25;;;0.80;;
57985;SDS011;43788;42.670;23.330;2022-12-11T00:38:23;1.17;;;1.08;;
57985;SDS011;43788;42.670;23.330;2022-12-11T00:40:49;0.82;;;0.82;;
57985;SDS011;43788;42.670;23.330;2022-12-11T00:43:14;0.70;;;0.70;;
57985;SDS011;43788;42.670;23.330;2022-12-11T00:45:41;0.82;;;0.82;;
57985;SDS011;43788;42.670;23.330;2022-12-11T00:48:08;0.45;;;0.45;;
57985;SDS011;43788;42.670;23.330;2022-12-11T00:50:34;0.80;;;0.65;;
57985;SDS011;43788;42.670;23.330;2022-12-11T00:53:01;1.63;;;0.82;;
57985;SDS011;43788;42.670;23.330;2022-12-11T00:55:26;0.50;;;0.50;;
57985;SDS011;43788;42.670;23.330;2022-12-11T00:57:53;0.77;;;0.77;;
57985;SDS011;43788;42.670;23.330;2022-12-11T01:00:20;0.77;;;0.77;;
57985;SDS011;43788;42.670;23.330;2022-12-11T01:02:46;0.50;;;0.50;;
57985;SDS011;43788;42.670;23.330;2022-12-11T01:05:12;1.58;;;0.95;;
57985;SDS011;43788;42.670;23.330;2022-12-11T01:07:38;0.70;;;0.70;;
57985;SDS011;43788;42.670;23.330;2022-12-11T01:10:03;0.45;;;0.45;;
57985;SDS011;43788;42.670;23.330;2022-12-11T01:12:47;0.75;;;0.60;;
57985;SDS011;43788;42.670;23.330;2022-12-11T01:15:13;0.52;;;0.52;;
57985;SDS011;43788;42.670;23.330;2022-12-11T01:17:38;0.55;;;0.55;;
57985;SDS011;43788;42.670;23.330;2022-12-11T01:20:04;0.38;;;0.38;;
57985;SDS011;43788;42.670;23.330;2022-12-11T01:22:31;0.52;;;0.52;;
57985;SDS011;43788;42.670;23.330;2022-12-11T01:24:57;1.27;;;0.50;;
57985;SDS011;43788;42.670;23.330;2022-12-11T01:27:24;0.50;;;0.50;;
57985;SDS011;43788;42.670;23.330;2022-12-11T01:29:49;0.40;;;0.40;;
57985;SDS011;43788;42.670;23.330;2022-12-11T01:32:16;0.55;;;0.55;;
57985;SDS011;43788;42.670;23.330;2022-12-11T01:34:41;0.80;;;0.68;;
57985;SDS011;43788;42.670;23.330;2022-12-11T01:37:06;0.50;;;0.43;;
57985;SDS011;43788;42.670;23.330;2022-12-11T01:39:32;0.60;;;0.60;;
57985;SDS011;43788;42.670;23.330;2022-12-11T01:41:58;0.70;;;0.40;;
57985;SDS011;43788;42.670;23.330;2022-12-11T01:46:50;1.38;;;0.50;;
57985;SDS011;43788;42.670;23.330;2022-12-11T01:49:16;0.40;;;0.30;;
57985;SDS011;43788;42.670;23.330;2022-12-11T01:51:48;0.50;;;0.50;;
57985;SDS011;43788;42.670;23.330;2022-12-11T01:54:16;0.40;;;0.30;;
57985;SDS011;43788;42.670;23.330;2022-12-11T01:56:43;0.40;;;0.40;;
57985;SDS011;43788;42.670;23.330;2022-12-11T01:59:10;0.30;;;0.30;;
57985;SDS011;43788;42.670;23.330;2022-12-11T02:01:40;0.30;;;0.30;;
57985;SDS011;43788;42.670;23.330;2022-12-11T02:04:09;0.73;;;0.55;;
57985;SDS011;43788;42.670;23.330;2022-12-11T02:09:03;0.28;;;0.25;;
57985;SDS011;43788;42.670;23.330;2022-12-11T02:29:10;0.30;;;0.30;;
57985;SDS011;43788;42.670;23.330;2022-12-11T02:31:40;0.13;;;0.00;;
57985;SDS011;43788;42.670;23.330;2022-12-11T02:34:11;0.08;;;0.08;;
57985;SDS011;43788;42.670;23.330;2022-12-11T02:36:56;0.10;;;0.10;;
57985;SDS011;43788;42.670;23.330;2022-12-11T02:39:23;0.03;;;0.03;;
57985;SDS011;43788;42.670;23.330;2022-12-11T02:41:50;2.05;;;0.10;;
57985;SDS011;43788;42.670;23.330;2022-12-11T02:44:18;0.10;;;0.10;;
57985;SDS011;43788;42.670;23.330;2022-12-11T02:46:54;0.55;;;0.55;;
57985;SDS011;43788;42.670;23.330;2022-12-11T02:49:20;0.20;;;0.13;;
57985;SDS011;43788;42.670;23.330;2022-12-11T02:51:47;0.10;;;0.10;;
57985;SDS011;43788;42.670;23.330;2022-12-11T02:54:15;0.00;;;0.00;;
57985;SDS011;43788;42.670;23.330;2022-12-11T02:57:07;0.13;;;0.13;;
57985;SDS011;43788;42.670;23.330;2022-12-11T02:59:36;0.00;;;0.00;;
57985;SDS011;43788;42.670;23.330;2022-12-11T03:02:03;0.03;;;0.03;;
57985;SDS011;43788;42.670;23.330;2022-12-11T03:04:29;0.03;;;0.03;;
57985;SDS011;43788;42.670;23.330;2022-12-11T03:06:57;0.00;;;0.00;;
57985;SDS011;43788;42.670;23.330;2022-12-11T03:09:36;0.05;;;0.05;;
57985;SDS011;43788;42.670;23.330;2022-12-11T03:12:03;0.00;;;0.00;;
57985;SDS011;43788;42.670;23.330;2022-12-11T03:14:30;0.10;;;0.10;;
57985;SDS011;43788;42.670;23.330;2022-12-11T03:19:54;0.20;;;0.10;;
57985;SDS011;43788;42.670;23.330;2022-12-11T03:22:36;0.40;;;0.20;;
57985;SDS011;43788;42.670;23.330;2022-12-11T03:25:08;0.10;;;0.10;;
57985;SDS011;43788;42.670;23.330;2022-12-11T03:27:44;0.00;;;0.00;;
57985;SDS011;43788;42.670;23.330;2022-12-11T03:30:18;0.10;;;0.10;;
57985;SDS011;43788;42.670;23.330;2022-12-11T03:32:52;0.00;;;0.00;;
57985;SDS011;43788;42.670;23.330;2022-12-11T03:38:10;0.00;;;0.00;;
57985;SDS011;43788;42.670;23.330;2022-12-11T03:40:38;0.13;;;0.10;;
57985;SDS011;43788;42.670;23.330;2022-12-11T03:43:05;0.10;;;0.05;;
57985;SDS011;43788;42.670;23.330;2022-12-11T03:45:31;0.10;;;0.00;;
57985;SDS011;43788;42.670;23.330;2022-12-11T03:47:58;0.00;;;0.00;;
57985;SDS011;43788;42.670;23.330;2022-12-11T03:50:24;0.00;;;0.00;;
57985;SDS011;43788;42.670;23.330;2022-12-11T03:52:52;0.00;;;0.00;;
57985;SDS011;43788;42.670;23.330;2022-12-11T03:55:18;0.13;;;0.05;;
57985;SDS011;43788;42.670;23.330;2022-12-11T03:57:45;0.10;;;0.00;;
57985;SDS011;43788;42.670;23.330;2022-12-11T04:00:12;0.00;;;0.00;;
57985;SDS011;43788;42.670;23.330;2022-12-11T04:02:40;0.00;;;0.00;;
57985;SDS011;43788;42.670;23.330;2022-12-11T04:05:07;0.00;;;0.00;;
57985;SDS011;43788;42.670;23.330;2022-12-11T04:07:33;0.00;;;0.00;;
57985;SDS011;43788;42.670;23.330;2022-12-11T04:09:58;0.00;;;0.00;;
57985;SDS011;43788;42.670;23.330;2022-12-11T04:12:24;0.03;;;0.03;;
57985;SDS011;43788;42.670;23.330;2022-12-11T04:14:49;0.93;;;0.20;;
57985;SDS011;43788;42.670;23.330;2022-12-11T04:17:31;0.00;;;0.00;;
57985;SDS011;43788;42.670;23.330;2022-12-11T04:20:16;0.10;;;0.10;;
57985;SDS011;43788;42.670;23.330;2022-12-11T04:23:05;0.00;;;0.00;;
57985;SDS011;43788;42.670;23.330;2022-12-11T04:26:15;0.00;;;0.00;;
57985;SDS011;43788;42.670;23.330;2022-12-11T04:28:42;0.20;;;0.20;;
57985;SDS011;43788;42.670;23.330;2022-12-11T04:31:12;0.00;;;0.00;;
57985;SDS011;43788;42.670;23.330;2022-12-11T04:33:42;0.03;;;0.00;;
57985;SDS011;43788;42.670;23.330;2022-12-11T04:36:08;0.08;;;0.08;;
57985;SDS011;43788;42.670;23.330;2022-12-11T04:38:35;0.10;;;0.05;;
57985;SDS011;43788;42.670;23.330;2022-12-11T04:41:02;0.13;;;0.08;;
57985;SDS011;43788;42.670;23.330;2022-12-11T04:43:32;0.00;;;0.00;;
57985;SDS011;43788;42.670;23.330;2022-12-11T04:46:01;0.00;;;0.00;;
57985;SDS011;43788;42.670;23.330;2022-12-11T04:48:27;0.00;;;0.00;;
57985;SDS011;43788;42.670;23.330;2022-12-11T04:50:53;0.00;;;0.00;;
57985;SDS011;43788;42.670;23.330;2022-12-11T04:53:19;0.03;;;0.00;;
57985;SDS011;43788;42.670;23.330;2022-12-11T04:58:38;0.00;;;0.00;;
57985;SDS011;43788;42.670;23.330;2022-12-11T05:01:10;0.00;;;0.00;;
57985;SDS011;43788;42.670;23.330;2022-12-11T05:03:38;0.00;;;0.00;;
57985;SDS011;43788;42.670;23.330;2022-12-11T05:06:04;0.00;;;0.00;;
57985;SDS011;43788;42.670;23.330;2022-12-11T05:08:32;0.00;;;0.00;;
57985;SDS011;43788;42.670;23.330;2022-12-11T05:11:03;0.05;;;0.03;;
57985;SDS011;43788;42.670;23.330;2022-12-11T05:13:30;0.00;;;0.00;;
57985;SDS011;43788;42.670;23.330;2022-12-11T05:15:56;0.00;;;0.00;;
57985;SDS011;43788;42.670;23.330;2022-12-11T05:18:21;0.00;;;0.00;;
57985;SDS011;43788;42.670;23.330;2022-12-11T05:20:54;0.00;;;0.00;;
57985;SDS011;43788;42.670;23.330;2022-12-11T05:23:29;0.13;;;0.13;;
57985;SDS011;43788;42.670;23.330;2022-12-11T05:25:55;0.00;;;0.00;;
57985;SDS011;43788;42.670;23.330;2022-12-11T05:28:22;0.00;;;0.00;;
57985;SDS011;43788;42.670;23.330;2022-12-11T05:31:00;0.00;;;0.00;;
57985;SDS011;43788;42.670;23.330;2022-12-11T05:33:27;0.20;;;0.10;;
57985;SDS011;43788;42.670;23.330;2022-12-11T05:35:54;0.08;;;0.08;;
57985;SDS011;43788;42.670;23.330;2022-12-11T05:38:19;0.00;;;0.00;;
57985;SDS011;43788;42.670;23.330;2022-12-11T05:40:54;0.00;;;0.00;;
57985;SDS011;43788;42.670;23.330;2022-12-11T05:43:21;0.10;;;0.03;;
57985;SDS011;43788;42.670;23.330;2022-12-11T05:45:47;0.10;;;0.10;;
57985;SDS011;43788;42.670;23.330;2022-12-11T05:48:12;0.10;;;0.00;;
57985;SDS011;43788;42.670;23.330;2022-12-11T05:50:41;0.00;;;0.00;;
57985;SDS011;43788;42.670;23.330;2022-12-11T05:53:06;0.00;;;0.00;;
57985;SDS011;43788;42.670;23.330;2022-12-11T05:55:35;0.00;;;0.00;;
57985;SDS011;43788;42.670;23.330;2022-12-11T05:58:01;0.00;;;0.00;;
57985;SDS011;43788;42.670;23.330;2022-12-11T06:00:28;0.20;;;0.00;;
57985;SDS011;43788;42.670;23.330;2022-12-11T06:02:53;0.00;;;0.00;;
57985;SDS011;43788;42.670;23.330;2022-12-11T06:05:19;0.10;;;0.10;;
57985;SDS011;43788;42.670;23.330;2022-12-11T06:07:44;0.10;;;0.10;;
57985;SDS011;43788;42.670;23.330;2022-12-11T06:10:11;0.00;;;0.00;;
57985;SDS011;43788;42.670;23.330;2022-12-11T06:12:38;0.00;;;0.00;;
57985;SDS011;43788;42.670;23.330;2022-12-11T06:15:04;0.10;;;0.10;;
57985;SDS011;43788;42.670;23.330;2022-12-11T06:17:30;0.00;;;0.00;;
57985;SDS011;43788;42.670;23.330;2022-12-11T06:19:56;0.00;;;0.00;;
57985;SDS011;43788;42.670;23.330;2022-12-11T06:22:21;0.00;;;0.00;;
57985;SDS011;43788;42.670;23.330;2022-12-11T06:24:47;0.10;;;0.10;;
57985;SDS011;43788;42.670;23.330;2022-12-11T06:27:13;0.00;;;0.00;;
57985;SDS011;43788;42.670;23.330;2022-12-11T06:29:38;0.00;;;0.00;;
57985;SDS011;43788;42.670;23.330;2022-12-11T06:32:04;0.10;;;0.00;;
57985;SDS011;43788;42.670;23.330;2022-12-11T06:34:30;0.00;;;0.00;;
57985;SDS011;43788;42.670;23.330;2022-12-11T06:36:57;0.00;;;0.00;;
57985;SDS011;43788;42.670;23.330;2022-12-11T06:39:24;0.10;;;0.10;;
57985;SDS011;43788;42.670;23.330;2022-12-11T06:41:49;0.00;;;0.00;;
57985;SDS011;43788;42.670;23.330;2022-12-11T06:44:15;0.05;;;0.05;;
57985;SDS011;43788;42.670;23.330;2022-12-11T06:46:40;0.20;;;0.20;;
57985;SDS011;43788;42.670;23.330;2022-12-11T06:49:05;0.00;;;0.00;;
57985;SDS011;43788;42.670;23.330;2022-12-11T06:51:31;0.00;;;0.00;;
57985;SDS011;43788;42.670;23.330;2022-12-11T06:53:56;0.65;;;0.17;;
57985;SDS011;43788;42.670;23.330;2022-12-11T06:56:22;0.10;;;0.10;;
57985;SDS011;43788;42.670;23.330;2022-12-11T06:58:48;0.10;;;0.00;;
57985;SDS011;43788;42.670;23.330;2022-12-11T07:01:15;0.00;;;0.00;;
57985;SDS011;43788;42.670;23.330;2022-12-11T07:03:42;0.00;;;0.00;;
57985;SDS011;43788;42.670;23.330;2022-12-11T07:06:08;0.00;;;0.00;;
57985;SDS011;43788;42.670;23.330;2022-12-11T07:08:33;0.00;;;0.00;;
57985;SDS011;43788;42.670;23.330;2022-12-11T07:11:01;0.00;;;0.00;;
57985;SDS011;43788;42.670;23.330;2022-12-11T07:13:30;0.30;;;0.10;;
57985;SDS011;43788;42.670;23.330;2022-12-11T07:15:57;0.10;;;0.00;;
57985;SDS011;43788;42.670;23.330;2022-12-11T07:18:24;0.13;;;0.13;;
57985;SDS011;43788;42.670;23.330;2022-12-11T07:20:52;0.00;;;0.00;;
57985;SDS011;43788;42.670;23.330;2022-12-11T07:23:17;0.00;;;0.00;;
57985;SDS011;43788;42.670;23.330;2022-12-11T07:25:43;0.00;;;0.00;;
57985;SDS011;43788;42.670;23.330;2022-12-11T07:28:10;0.10;;;0.00;;
57985;SDS011;43788;42.670;23.330;2022-12-11T07:30:37;0.08;;;0.03;;
57985;SDS011;43788;42.670;23.330;2022-12-11T07:33:03;0.28;;;0.08;;
57985;SDS011;43788;42.670;23.330;2022-12-11T07:35:29;0.15;;;0.00;;
57985;SDS011;43788;42.670;23.330;2022-12-11T07:37:55;0.00;;;0.00;;
57985;SDS011;43788;42.670;23.330;2022-12-11T07:40:21;0.00;;;0.00;;
57985;SDS011;43788;42.670;23.330;2022-12-11T07:42:47;0.00;;;0.00;;
57985;SDS011;43788;42.670;23.330;2022-12-11T07:45:12;0.00;;;0.00;;
57985;SDS011;43788;42.670;23.330;2022-12-11T07:47:37;0.00;;;0.00;;
57985;SDS011;43788;42.670;23.330;2022-12-11T07:50:03;0.17;;;0.13;;
57985;SDS011;43788;42.670;23.330;2022-12-11T07:52:28;0.00;;;0.00;;
57985;SDS011;43788;42.670;23.330;2022-12-11T07:54:54;0.00;;;0.00;;
57985;SDS011;43788;42.670;23.330;2022-12-11T07:57:19;0.32;;;0.10;;
57985;SDS011;43788;42.670;23.330;2022-12-11T07:59:45;0.10;;;0.00;;
57985;SDS011;43788;42.670;23.330;2022-12-11T08:02:10;0.08;;;0.05;;
57985;SDS011;43788;42.670;23.330;2022-12-11T08:04:36;0.20;;;0.10;;
57985;SDS011;43788;42.670;23.330;2022-12-11T08:07:02;0.15;;;0.15;;
57985;SDS011;43788;42.670;23.330;2022-12-11T08:09:27;0.10;;;0.10;;
57985;SDS011;43788;42.670;23.330;2022-12-11T08:11:53;0.10;;;0.10;;
57985;SDS011;43788;42.670;23.330;2022-12-11T08:14:20;0.05;;;0.05;;
57985;SDS011;43788;42.670;23.330;2022-12-11T08:16:45;0.00;;;0.00;;
57985;SDS011;43788;42.670;23.330;2022-12-11T08:19:11;0.00;;;0.00;;
57985;SDS011;43788;42.670;23.330;2022-12-11T08:21:36;0.00;;;0.00;;
57985;SDS011;43788;42.670;23.330;2022-12-11T08:24:02;0.10;;;0.10;;
57985;SDS011;43788;42.670;23.330;2022-12-11T08:26:28;0.00;;;0.00;;
57985;SDS011;43788;42.670;23.330;2022-12-11T08:28:55;0.20;;;0.10;;
57985;SDS011;43788;42.670;23.330;2022-12-11T08:31:23;0.10;;;0.10;;
57985;SDS011;43788;42.670;23.330;2022-12-11T08:33:49;0.32;;;0.20;;
57985;SDS011;43788;42.670;23.330;2022-12-11T08:36:16;0.00;;;0.00;;
57985;SDS011;43788;42.670;23.330;2022-12-11T08:38:43;0.00;;;0.00;;
57985;SDS011;43788;42.670;23.330;2022-12-11T08:41:21;0.00;;;0.00;;
57985;SDS011;43788;42.670;23.330;2022-12-11T08:43:48;0.00;;;0.00;;
57985;SDS011;43788;42.670;23.330;2022-12-11T08:46:16;0.03;;;0.03;;
57985;SDS011;43788;42.670;23.330;2022-12-11T08:48:42;0.00;;;0.00;;
57985;SDS011;43788;42.670;23.330;2022-12-11T08:51:09;0.10;;;0.10;;
57985;SDS011;43788;42.670;23.330;2022-12-11T08:53:37;0.22;;;0.20;;
57985;SDS011;43788;42.670;23.330;2022-12-11T08:56:05;0.13;;;0.13;;
57985;SDS011;43788;42.670;23.330;2022-12-11T08:58:31;0.13;;;0.13;;
57985;SDS011;43788;42.670;23.330;2022-12-11T09:00:57;0.10;;;0.10;;
57985;SDS011;43788;42.670;23.330;2022-12-11T09:03:22;0.40;;;0.20;;
57985;SDS011;43788;42.670;23.330;2022-12-11T09:05:48;0.10;;;0.10;;
57985;SDS011;43788;42.670;23.330;2022-12-11T09:08:14;0.20;;;0.17;;
57985;SDS011;43788;42.670;23.330;2022-12-11T09:10:39;0.43;;;0.17;;
57985;SDS011;43788;42.670;23.330;2022-12-11T09:13:05;0.00;;;0.00;;
57985;SDS011;43788;42.670;23.330;2022-12-11T09:15:30;0.20;;;0.10;;
57985;SDS011;43788;42.670;23.330;2022-12-11T09:17:56;0.30;;;0.10;;
57985;SDS011;43788;42.670;23.330;2022-12-11T09:20:21;0.00;;;0.00;;
57985;SDS011;43788;42.670;23.330;2022-12-11T09:22:47;0.75;;;0.10;;
57985;SDS011;43788;42.670;23.330;2022-12-11T09:25:15;1.38;;;0.20;;
57985;SDS011;43788;42.670;23.330;2022-12-11T09:27:41;0.00;;;0.00;;
57985;SDS011;43788;42.670;23.330;2022-12-11T09:30:07;0.00;;;0.00;;
57985;SDS011;43788;42.670;23.330;2022-12-11T09:32:33;0.13;;;0.10;;
57985;SDS011;43788;42.670;23.330;2022-12-11T09:34:58;0.10;;;0.10;;
57985;SDS011;43788;42.670;23.330;2022-12-11T09:37:24;0.17;;;0.10;;
57985;SDS011;43788;42.670;23.330;2022-12-11T09:39:49;0.10;;;0.10;;
57985;SDS011;43788;42.670;23.330;2022-12-11T09:45:03;0.10;;;0.10;;
57985;SDS011;43788;42.670;23.330;2022-12-11T09:47:35;0.10;;;0.10;;
57985;SDS011;43788;42.670;23.330;2022-12-11T09:55:19;0.10;;;0.10;;
57985;SDS011;43788;42.670;23.330;2022-12-11T10:00:39;0.00;;;0.00;;
57985;SDS011;43788;42.670;23.330;2022-12-11T10:03:13;0.00;;;0.00;;
57985;SDS011;43788;42.670;23.330;2022-12-11T10:14:13;0.00;;;0.00;;
57985;SDS011;43788;42.670;23.330;2022-12-11T10:16:46;0.00;;;0.00;;
57985;SDS011;43788;42.670;23.330;2022-12-11T10:19:18;0.00;;;0.00;;
57985;SDS011;43788;42.670;23.330;2022-12-11T10:21:47;2.05;;;0.10;;
57985;SDS011;43788;42.670;23.330;2022-12-11T10:24:17;0.10;;;0.10;;
57985;SDS011;43788;42.670;23.330;2022-12-11T10:26:47;0.20;;;0.20;;
57985;SDS011;43788;42.670;23.330;2022-12-11T10:29:17;0.10;;;0.10;;
57985;SDS011;43788;42.670;23.330;2022-12-11T10:31:52;0.00;;;0.00;;
57985;SDS011;43788;42.670;23.330;2022-12-11T10:37:04;0.00;;;0.00;;
57985;SDS011;43788;42.670;23.330;2022-12-11T10:39:30;0.00;;;0.00;;
57985;SDS011;43788;42.670;23.330;2022-12-11T10:41:57;0.52;;;0.10;;
57985;SDS011;43788;42.670;23.330;2022-12-11T10:44:26;0.10;;;0.10;;
57985;SDS011;43788;42.670;23.330;2022-12-11T10:49:38;0.00;;;0.00;;
57985;SDS011;43788;42.670;23.330;2022-12-11T10:52:10;0.05;;;0.05;;
57985;SDS011;43788;42.670;23.330;2022-12-11T10:54:42;0.50;;;0.22;;
57985;SDS011;43788;42.670;23.330;2022-12-11T10:57:11;0.10;;;0.10;;
57985;SDS011;43788;42.670;23.330;2022-12-11T10:59:48;0.30;;;0.10;;
57985;SDS011;43788;42.670;23.330;2022-12-11T11:04:50;0.20;;;0.20;;
57985;SDS011;43788;42.670;23.330;2022-12-11T11:07:21;0.00;;;0.00;;
57985;SDS011;43788;42.670;23.330;2022-12-11T11:12:18;0.10;;;0.10;;
57985;SDS011;43788;42.670;23.330;2022-12-11T11:15:01;0.10;;;0.10;;
57985;SDS011;43788;42.670;23.330;2022-12-11T11:17:47;0.28;;;0.28;;
57985;SDS011;43788;42.670;23.330;2022-12-11T11:20:15;0.10;;;0.10;;
57985;SDS011;43788;42.670;23.330;2022-12-11T11:22:50;0.03;;;0.00;;
57985;SDS011;43788;42.670;23.330;2022-12-11T11:25:18;0.00;;;0.00;;
57985;SDS011;43788;42.670;23.330;2022-12-11T11:30:29;0.00;;;0.00;;
57985;SDS011;43788;42.670;23.330;2022-12-11T11:33:03;0.00;;;0.00;;
57985;SDS011;43788;42.670;23.330;2022-12-11T11:35:30;0.10;;;0.10;;
57985;SDS011;43788;42.670;23.330;2022-12-11T11:37:59;0.10;;;0.10;;
57985;SDS011;43788;42.670;23.330;2022-12-11T11:46:19;0.20;;;0.20;;
57985;SDS011;43788;42.670;23.330;2022-12-11T11:56:50;0.10;;;0.08;;
57985;SDS011;43788;42.670;23.330;2022-12-11T11:59:19;0.00;;;0.00;;
57985;SDS011;43788;42.670;23.330;2022-12-11T12:01:46;0.10;;;0.10;;
57985;SDS011;43788;42.670;23.330;2022-12-11T12:04:11;0.05;;;0.05;;
57985;SDS011;43788;42.670;23.330;2022-12-11T12:11:53;0.28;;;0.10;;
57985;SDS011;43788;42.670;23.330;2022-12-11T12:17:41;1.65;;;0.38;;
57985;SDS011;43788;42.670;23.330;2022-12-11T12:20:31;0.30;;;0.30;;
57985;SDS011;43788;42.670;23.330;2022-12-11T12:37:07;0.10;;;0.10;;
57985;SDS011;43788;42.670;23.330;2022-12-11T12:47:45;0.10;;;0.10;;
57985;SDS011;43788;42.670;23.330;2022-12-11T12:50:19;0.00;;;0.00;;
57985;SDS011;43788;42.670;23.330;2022-12-11T12:52:46;0.00;;;0.00;;
57985;SDS011;43788;42.670;23.330;2022-12-11T12:57:38;0.20;;;0.10;;
57985;SDS011;43788;42.670;23.330;2022-12-11T13:00:09;0.00;;;0.00;;
57985;SDS011;43788;42.670;23.330;2022-12-11T13:02:54;0.03;;;0.03;;
57985;SDS011;43788;42.670;23.330;2022-12-11T13:05:24;0.00;;;0.00;;
57985;SDS011;43788;42.670;23.330;2022-12-11T13:07:55;0.00;;;0.00;;
57985;SDS011;43788;42.670;23.330;2022-12-11T13:10:26;0.08;;;0.08;;
57985;SDS011;43788;42.670;23.330;2022-12-11T13:13:00;0.00;;;0.00;;
57985;SDS011;43788;42.670;23.330;2022-12-11T13:17:52;0.00;;;0.00;;
57985;SDS011;43788;42.670;23.330;2022-12-11T13:20:18;0.10;;;0.10;;
57985;SDS011;43788;42.670;23.330;2022-12-11T13:22:50;0.10;;;0.10;;
57985;SDS011;43788;42.670;23.330;2022-12-11T13:25:44;0.00;;;0.00;;
57985;SDS011;43788;42.670;23.330;2022-12-11T13:28:21;0.10;;;0.10;;
57985;SDS011;43788;42.670;23.330;2022-12-11T13:34:01;0.00;;;0.00;;
57985;SDS011;43788;42.670;23.330;2022-12-11T13:36:49;0.08;;;0.08;;
57985;SDS011;43788;42.670;23.330;2022-12-11T13:41:49;0.00;;;0.00;;
57985;SDS011;43788;42.670;23.330;2022-12-11T13:44:22;0.00;;;0.00;;
57985;SDS011;43788;42.670;23.330;2022-12-11T13:46:49;0.00;;;0.00;;
57985;SDS011;43788;42.670;23.330;2022-12-11T13:49:19;0.00;;;0.00;;
57985;SDS011;43788;42.670;23.330;2022-12-11T13:51:54;0.00;;;0.00;;
57985;SDS011;43788;42.670;23.330;2022-12-11T13:54:22;0.00;;;0.00;;
57985;SDS011;43788;42.670;23.330;2022-12-11T13:57:30;0.00;;;0.00;;
57985;SDS011;43788;42.670;23.330;2022-12-11T13:59:42;0.00;;;0.00;;
57985;SDS011;43788;42.670;23.330;2022-12-11T14:02:19;0.10;;;0.10;;
57985;SDS011;43788;42.670;23.330;2022-12-11T14:04:47;0.00;;;0.00;;
57985;SDS011;43788;42.670;23.330;2022-12-11T14:07:15;0.00;;;0.00;;
57985;SDS011;43788;42.670;23.330;2022-12-11T14:09:46;0.00;;;0.00;;
57985;SDS011;43788;42.670;23.330;2022-12-11T14:12:14;0.00;;;0.00;;
57985;SDS011;43788;42.670;23.330;2022-12-11T14:14:42;0.03;;;0.03;;
57985;SDS011;43788;42.670;23.330;2022-12-11T14:20:01;0.00;;;0.00;;
57985;SDS011;43788;42.670;23.330;2022-12-11T14:22:29;0.03;;;0.00;;
57985;SDS011;43788;42.670;23.330;2022-12-11T14:24:56;0.00;;;0.00;;
57985;SDS011;43788;42.670;23.330;2022-12-11T14:27:23;0.00;;;0.00;;
57985;SDS011;43788;42.670;23.330;2022-12-11T14:29:50;0.00;;;0.00;;
57985;SDS011;43788;42.670;23.330;2022-12-11T14:32:34;0.00;;;0.00;;
57985;SDS011;43788;42.670;23.330;2022-12-11T14:35:02;0.00;;;0.00;;
57985;SDS011;43788;42.670;23.330;2022-12-11T14:37:30;0.00;;;0.00;;
57985;SDS011;43788;42.670;23.330;2022-12-11T14:42:38;0.17;;;0.05;;
57985;SDS011;43788;42.670;23.330;2022-12-11T14:45:52;0.00;;;0.00;;
57985;SDS011;43788;42.670;23.330;2022-12-11T14:47:53;0.00;;;0.00;;
57985;SDS011;43788;42.670;23.330;2022-12-11T14:50:21;0.00;;;0.00;;
57985;SDS011;43788;42.670;23.330;2022-12-11T14:52:56;0.00;;;0.00;;
57985;SDS011;43788;42.670;23.330;2022-12-11T14:55:29;0.00;;;0.00;;
57985;SDS011;43788;42.670;23.330;2022-12-11T14:57:59;0.00;;;0.00;;
57985;SDS011;43788;42.670;23.330;2022-12-11T15:03:18;0.00;;;0.00;;
57985;SDS011;43788;42.670;23.330;2022-12-11T15:05:52;0.00;;;0.00;;
57985;SDS011;43788;42.670;23.330;2022-12-11T15:08:29;0.00;;;0.00;;
57985;SDS011;43788;42.670;23.330;2022-12-11T15:11:12;0.00;;;0.00;;
57985;SDS011;43788;42.670;23.330;2022-12-11T15:16:17;0.00;;;0.00;;
57985;SDS011;43788;42.670;23.330;2022-12-11T15:18:43;0.00;;;0.00;;
57985;SDS011;43788;42.670;23.330;2022-12-11T15:21:12;0.00;;;0.00;;
57985;SDS011;43788;42.670;23.330;2022-12-11T15:23:51;0.00;;;0.00;;
57985;SDS011;43788;42.670;23.330;2022-12-11T15:26:18;0.00;;;0.00;;
57985;SDS011;43788;42.670;23.330;2022-12-11T15:28:44;0.00;;;0.00;;
57985;SDS011;43788;42.670;23.330;2022-12-11T15:31:27;0.00;;;0.00;;
57985;SDS011;43788;42.670;23.330;2022-12-11T15:33:54;0.00;;;0.00;;
57985;SDS011;43788;42.670;23.330;2022-12-11T15:38:55;0.00;;;0.00;;
57985;SDS011;43788;42.670;23.330;2022-12-11T15:41:21;0.08;;;0.08;;
57985;SDS011;43788;42.670;23.330;2022-12-11T15:43:49;0.05;;;0.00;;
57985;SDS011;43788;42.670;23.330;2022-12-11T15:46:18;0.00;;;0.00;;
57985;SDS011;43788;42.670;23.330;2022-12-11T15:48:44;0.10;;;0.10;;
57985;SDS011;43788;42.670;23.330;2022-12-11T15:51:11;0.00;;;0.00;;
57985;SDS011;43788;42.670;23.330;2022-12-11T15:53:37;0.43;;;0.20;;
57985;SDS011;43788;42.670;23.330;2022-12-11T15:56:03;0.08;;;0.08;;
57985;SDS011;43788;42.670;23.330;2022-12-11T15:58:29;0.00;;;0.00;;
57985;SDS011;43788;42.670;23.330;2022-12-11T16:00:54;0.08;;;0.08;;
57985;SDS011;43788;42.670;23.330;2022-12-11T16:03:22;0.00;;;0.00;;
57985;SDS011;43788;42.670;23.330;2022-12-11T16:05:49;0.00;;;0.00;;
57985;SDS011;43788;42.670;23.330;2022-12-11T16:08:18;0.00;;;0.00;;
57985;SDS011;43788;42.670;23.330;2022-12-11T16:10:46;0.00;;;0.00;;
57985;SDS011;43788;42.670;23.330;2022-12-11T16:13:12;0.00;;;0.00;;
57985;SDS011;43788;42.670;23.330;2022-12-11T16:15:42;0.00;;;0.00;;
57985;SDS011;43788;42.670;23.330;2022-12-11T16:18:10;0.00;;;0.00;;
57985;SDS011;43788;42.670;23.330;2022-12-11T16:20:38;0.00;;;0.00;;
57985;SDS011;43788;42.670;23.330;2022-12-11T16:23:05;0.03;;;0.03;;
57985;SDS011;43788;42.670;23.330;2022-12-11T16:25:31;0.00;;;0.00;;
57985;SDS011;43788;42.670;23.330;2022-12-11T16:27:58;0.00;;;0.00;;
57985;SDS011;43788;42.670;23.330;2022-12-11T16:30:26;0.10;;;0.10;;
57985;SDS011;43788;42.670;23.330;2022-12-11T16:32:52;0.00;;;0.00;;
57985;SDS011;43788;42.670;23.330;2022-12-11T16:35:18;0.00;;;0.00;;
57985;SDS011;43788;42.670;23.330;2022-12-11T16:37:47;0.00;;;0.00;;
57985;SDS011;43788;42.670;23.330;2022-12-11T16:40:13;0.00;;;0.00;;
57985;SDS011;43788;42.670;23.330;2022-12-11T16:42:38;0.00;;;0.00;;
57985;SDS011;43788;42.670;23.330;2022-12-11T16:45:16;0.17;;;0.17;;
57985;SDS011;43788;42.670;23.330;2022-12-11T16:47:46;0.10;;;0.10;;
57985;SDS011;43788;42.670;23.330;2022-12-11T16:50:13;0.00;;;0.00;;
57985;SDS011;43788;42.670;23.330;2022-12-11T16:52:40;0.00;;;0.00;;
57985;SDS011;43788;42.670;23.330;2022-12-11T16:55:07;0.10;;;0.10;;